sensor_id;sensor_type;location;lat;lon;timestamp;P1;durP1;ratioP1;P2;durP2;ratioP2
49015;SDS011;34830;44.064;12.566;2023-03-19T00:01:11;143.65;;;82.05;;
49015;SDS011;34830;44.064;12.566;2023-03-19T00:03:37;140.98;;;76.40;;
49015;SDS011;34830;44.064;12.566;2023-03-19T00:06:03;137.15;;;78.63;;
49015;SDS011;34830;44.064;12.566;2023-03-19T00:08:29;149.27;;;80.45;;
49015;SDS011;34830;44.064;12.566;2023-03-19T00:10:55;136.13;;;76.07;;
49015;SDS011;34830;44.064;12.566;2023-03-19T00:13:21;133.43;;;77.38;;
49015;SDS011;34830;44.064;12.566;2023-03-19T00:15:47;150.82;;;86.63;;
49015;SDS011;34830;44.064;12.566;2023-03-19T00:18:13;146.38;;;80.63;;
49015;SDS011;34830;44.064;12.566;2023-03-19T00:20:39;153.88;;;86.70;;
49015;SDS011;34830;44.064;12.566;2023-03-19T00:23:05;154.55;;;83.95;;
49015;SDS011;34830;44.064;12.566;2023-03-19T00:25:31;145.50;;;84.68;;
49015;SDS011;34830;44.064;12.566;2023-03-19T00:27:58;151.80;;;87.78;;
49015;SDS011;34830;44.064;12.566;2023-03-19T00:30:24;163.15;;;91.72;;
49015;SDS011;34830;44.064;12.566;2023-03-19T00:32:50;157.65;;;89.45;;
49015;SDS011;34830;44.064;12.566;2023-03-19T00:35:16;147.75;;;88.10;;
49015;SDS011;34830;44.064;12.566;2023-03-19T00:37:42;168.52;;;88.57;;
49015;SDS011;34830;44.064;12.566;2023-03-19T00:40:08;157.38;;;88.25;;
49015;SDS011;34830;44.064;12.566;2023-03-19T00:42:35;152.65;;;88.55;;
49015;SDS011;34830;44.064;12.566;2023-03-19T00:45:02;152.15;;;88.57;;
49015;SDS011;34830;44.064;12.566;2023-03-19T00:47:32;148.35;;;84.15;;
49015;SDS011;34830;44.064;12.566;2023-03-19T00:49:58;157.90;;;90.03;;
49015;SDS011;34830;44.064;12.566;2023-03-19T00:52:24;146.02;;;85.80;;
49015;SDS011;34830;44.064;12.566;2023-03-19T00:54:50;148.10;;;87.03;;
49015;SDS011;34830;44.064;12.566;2023-03-19T00:57:17;159.73;;;91.43;;
49015;SDS011;34830;44.064;12.566;2023-03-19T00:59:43;149.30;;;87.10;;
49015;SDS011;34830;44.064;12.566;2023-03-19T01:02:10;158.80;;;89.80;;
49015;SDS011;34830;44.064;12.566;2023-03-19T01:04:36;149.82;;;87.55;;
49015;SDS011;34830;44.064;12.566;2023-03-19T01:07:02;142.35;;;83.43;;
49015;SDS011;34830;44.064;12.566;2023-03-19T01:09:28;150.50;;;87.30;;
49015;SDS011;34830;44.064;12.566;2023-03-19T01:11:54;154.68;;;90.68;;
49015;SDS011;34830;44.064;12.566;2023-03-19T01:14:20;152.90;;;87.68;;
49015;SDS011;34830;44.064;12.566;2023-03-19T01:16:46;151.90;;;89.07;;
49015;SDS011;34830;44.064;12.566;2023-03-19T01:19:12;153.05;;;86.53;;
49015;SDS011;34830;44.064;12.566;2023-03-19T01:21:39;159.95;;;90.20;;
49015;SDS011;34830;44.064;12.566;2023-03-19T01:24:05;156.05;;;89.32;;
49015;SDS011;34830;44.064;12.566;2023-03-19T01:26:31;149.82;;;90.45;;
49015;SDS011;34830;44.064;12.566;2023-03-19T01:29:09;156.70;;;88.32;;
49015;SDS011;34830;44.064;12.566;2023-03-19T01:31:36;158.50;;;91.20;;
49015;SDS011;34830;44.064;12.566;2023-03-19T01:34:13;156.13;;;89.43;;
49015;SDS011;34830;44.064;12.566;2023-03-19T01:36:47;159.20;;;91.82;;
49015;SDS011;34830;44.064;12.566;2023-03-19T01:39:16;162.65;;;91.00;;
49015;SDS011;34830;44.064;12.566;2023-03-19T01:41:42;154.05;;;89.05;;
49015;SDS011;34830;44.064;12.566;2023-03-19T01:44:33;153.02;;;86.70;;
49015;SDS011;34830;44.064;12.566;2023-03-19T01:47:28;151.93;;;89.30;;
49015;SDS011;34830;44.064;12.566;2023-03-19T01:53:24;128.45;;;82.97;;
49015;SDS011;34830;44.064;12.566;2023-03-19T01:56:06;143.85;;;84.18;;
49015;SDS011;34830;44.064;12.566;2023-03-19T01:58:40;152.68;;;91.03;;
49015;SDS011;34830;44.064;12.566;2023-03-19T02:01:18;157.00;;;91.03;;
49015;SDS011;34830;44.064;12.566;2023-03-19T02:03:48;150.32;;;89.43;;
49015;SDS011;34830;44.064;12.566;2023-03-19T02:06:23;151.77;;;88.72;;
49015;SDS011;34830;44.064;12.566;2023-03-19T02:08:49;154.27;;;90.88;;
49015;SDS011;34830;44.064;12.566;2023-03-19T02:11:16;147.07;;;86.18;;
49015;SDS011;34830;44.064;12.566;2023-03-19T02:13:43;123.43;;;76.65;;
49015;SDS011;34830;44.064;12.566;2023-03-19T02:16:09;146.23;;;87.05;;
49015;SDS011;34830;44.064;12.566;2023-03-19T02:18:35;156.00;;;89.97;;
49015;SDS011;34830;44.064;12.566;2023-03-19T02:21:16;150.02;;;86.13;;
49015;SDS011;34830;44.064;12.566;2023-03-19T02:24:05;135.35;;;83.55;;
49015;SDS011;34830;44.064;12.566;2023-03-19T02:26:52;148.15;;;87.82;;
49015;SDS011;34830;44.064;12.566;2023-03-19T02:29:19;150.43;;;91.05;;
49015;SDS011;34830;44.064;12.566;2023-03-19T02:31:46;154.52;;;92.00;;
49015;SDS011;34830;44.064;12.566;2023-03-19T02:36:45;154.15;;;87.85;;
49015;SDS011;34830;44.064;12.566;2023-03-19T02:39:16;150.35;;;89.85;;
49015;SDS011;34830;44.064;12.566;2023-03-19T02:41:55;149.73;;;88.60;;
49015;SDS011;34830;44.064;12.566;2023-03-19T02:44:23;142.82;;;88.10;;
49015;SDS011;34830;44.064;12.566;2023-03-19T02:46:51;150.38;;;87.78;;
49015;SDS011;34830;44.064;12.566;2023-03-19T02:49:17;135.00;;;85.22;;
49015;SDS011;34830;44.064;12.566;2023-03-19T02:51:43;136.60;;;83.25;;
49015;SDS011;34830;44.064;12.566;2023-03-19T02:54:09;141.77;;;84.45;;
49015;SDS011;34830;44.064;12.566;2023-03-19T02:56:36;141.20;;;83.43;;
49015;SDS011;34830;44.064;12.566;2023-03-19T02:59:02;131.60;;;77.40;;
49015;SDS011;34830;44.064;12.566;2023-03-19T03:01:28;135.32;;;78.90;;
49015;SDS011;34830;44.064;12.566;2023-03-19T03:03:54;131.77;;;76.97;;
49015;SDS011;34830;44.064;12.566;2023-03-19T03:06:21;128.77;;;76.38;;
49015;SDS011;34830;44.064;12.566;2023-03-19T03:08:47;126.75;;;76.50;;
49015;SDS011;34830;44.064;12.566;2023-03-19T03:11:13;133.27;;;75.45;;
49015;SDS011;34830;44.064;12.566;2023-03-19T03:13:39;122.35;;;74.90;;
49015;SDS011;34830;44.064;12.566;2023-03-19T03:16:05;127.63;;;73.68;;
49015;SDS011;34830;44.064;12.566;2023-03-19T03:18:32;116.55;;;70.75;;
49015;SDS011;34830;44.064;12.566;2023-03-19T03:20:58;113.32;;;68.95;;
49015;SDS011;34830;44.064;12.566;2023-03-19T03:23:24;116.47;;;72.60;;
49015;SDS011;34830;44.064;12.566;2023-03-19T03:25:51;117.28;;;67.57;;
49015;SDS011;34830;44.064;12.566;2023-03-19T03:28:17;118.60;;;67.10;;
49015;SDS011;34830;44.064;12.566;2023-03-19T03:30:44;112.95;;;66.03;;
49015;SDS011;34830;44.064;12.566;2023-03-19T03:33:10;111.57;;;64.20;;
49015;SDS011;34830;44.064;12.566;2023-03-19T03:35:37;115.20;;;68.10;;
49015;SDS011;34830;44.064;12.566;2023-03-19T03:38:04;106.57;;;66.88;;
49015;SDS011;34830;44.064;12.566;2023-03-19T03:40:31;113.40;;;68.25;;
49015;SDS011;34830;44.064;12.566;2023-03-19T03:42:58;110.53;;;67.85;;
49015;SDS011;34830;44.064;12.566;2023-03-19T03:45:24;113.13;;;66.95;;
49015;SDS011;34830;44.064;12.566;2023-03-19T03:47:51;112.10;;;68.18;;
49015;SDS011;34830;44.064;12.566;2023-03-19T03:50:17;110.35;;;65.38;;
49015;SDS011;34830;44.064;12.566;2023-03-19T03:52:45;105.85;;;65.55;;
49015;SDS011;34830;44.064;12.566;2023-03-19T03:55:12;111.18;;;65.82;;
49015;SDS011;34830;44.064;12.566;2023-03-19T03:57:38;102.93;;;62.90;;
49015;SDS011;34830;44.064;12.566;2023-03-19T04:00:04;103.00;;;62.22;;
49015;SDS011;34830;44.064;12.566;2023-03-19T04:02:38;100.20;;;63.17;;
49015;SDS011;34830;44.064;12.566;2023-03-19T04:05:05;106.63;;;61.03;;
49015;SDS011;34830;44.064;12.566;2023-03-19T04:07:31;100.82;;;61.78;;
49015;SDS011;34830;44.064;12.566;2023-03-19T04:09:57;88.57;;;56.50;;
49015;SDS011;34830;44.064;12.566;2023-03-19T04:12:24;84.78;;;50.67;;
49015;SDS011;34830;44.064;12.566;2023-03-19T04:14:50;90.65;;;56.22;;
49015;SDS011;34830;44.064;12.566;2023-03-19T04:17:17;96.15;;;56.78;;
49015;SDS011;34830;44.064;12.566;2023-03-19T04:19:43;87.13;;;51.70;;
49015;SDS011;34830;44.064;12.566;2023-03-19T04:22:09;79.93;;;50.33;;
49015;SDS011;34830;44.064;12.566;2023-03-19T04:24:35;80.55;;;52.70;;
49015;SDS011;34830;44.064;12.566;2023-03-19T04:27:02;86.63;;;54.15;;
49015;SDS011;34830;44.064;12.566;2023-03-19T04:29:28;87.05;;;54.35;;
49015;SDS011;34830;44.064;12.566;2023-03-19T04:31:55;89.45;;;56.25;;
49015;SDS011;34830;44.064;12.566;2023-03-19T04:34:21;88.13;;;56.22;;
49015;SDS011;34830;44.064;12.566;2023-03-19T04:36:47;78.60;;;50.17;;
49015;SDS011;34830;44.064;12.566;2023-03-19T04:39:14;86.50;;;51.92;;
49015;SDS011;34830;44.064;12.566;2023-03-19T04:41:41;82.68;;;51.65;;
49015;SDS011;34830;44.064;12.566;2023-03-19T04:44:27;82.95;;;52.10;;
49015;SDS011;34830;44.064;12.566;2023-03-19T04:46:53;84.95;;;51.08;;
49015;SDS011;34830;44.064;12.566;2023-03-19T04:49:20;81.78;;;50.30;;
49015;SDS011;34830;44.064;12.566;2023-03-19T04:51:48;87.22;;;51.97;;
49015;SDS011;34830;44.064;12.566;2023-03-19T04:54:14;80.03;;;51.15;;
49015;SDS011;34830;44.064;12.566;2023-03-19T04:56:40;77.40;;;48.20;;
49015;SDS011;34830;44.064;12.566;2023-03-19T04:59:07;83.28;;;50.20;;
49015;SDS011;34830;44.064;12.566;2023-03-19T05:01:33;82.00;;;50.45;;
49015;SDS011;34830;44.064;12.566;2023-03-19T05:04:03;72.65;;;47.08;;
49015;SDS011;34830;44.064;12.566;2023-03-19T05:06:31;72.20;;;46.78;;
49015;SDS011;34830;44.064;12.566;2023-03-19T05:08:57;75.40;;;45.95;;
49015;SDS011;34830;44.064;12.566;2023-03-19T05:11:24;74.25;;;43.85;;
49015;SDS011;34830;44.064;12.566;2023-03-19T05:14:01;65.80;;;41.22;;
49015;SDS011;34830;44.064;12.566;2023-03-19T05:16:34;65.43;;;38.95;;
49015;SDS011;34830;44.064;12.566;2023-03-19T05:19:00;66.88;;;39.03;;
49015;SDS011;34830;44.064;12.566;2023-03-19T05:21:26;58.67;;;38.97;;
49015;SDS011;34830;44.064;12.566;2023-03-19T05:23:53;64.10;;;41.35;;
49015;SDS011;34830;44.064;12.566;2023-03-19T05:26:21;68.38;;;44.47;;
49015;SDS011;34830;44.064;12.566;2023-03-19T05:29:06;76.28;;;46.38;;
49015;SDS011;34830;44.064;12.566;2023-03-19T05:31:46;62.47;;;42.53;;
49015;SDS011;34830;44.064;12.566;2023-03-19T05:34:12;69.28;;;44.03;;
49015;SDS011;34830;44.064;12.566;2023-03-19T05:36:38;64.55;;;42.00;;
49015;SDS011;34830;44.064;12.566;2023-03-19T05:39:10;64.28;;;38.95;;
49015;SDS011;34830;44.064;12.566;2023-03-19T05:41:39;99.97;;;39.38;;
49015;SDS011;34830;44.064;12.566;2023-03-19T05:44:06;60.30;;;36.38;;
49015;SDS011;34830;44.064;12.566;2023-03-19T05:47:07;68.90;;;38.87;;
49015;SDS011;34830;44.064;12.566;2023-03-19T05:49:38;60.70;;;36.15;;
49015;SDS011;34830;44.064;12.566;2023-03-19T05:52:04;59.95;;;37.22;;
49015;SDS011;34830;44.064;12.566;2023-03-19T05:54:31;69.95;;;38.70;;
49015;SDS011;34830;44.064;12.566;2023-03-19T05:57:02;66.25;;;36.13;;
49015;SDS011;34830;44.064;12.566;2023-03-19T05:59:44;57.05;;;34.67;;
49015;SDS011;34830;44.064;12.566;2023-03-19T06:02:33;65.63;;;37.55;;
49015;SDS011;34830;44.064;12.566;2023-03-19T06:05:20;64.82;;;37.50;;
49015;SDS011;34830;44.064;12.566;2023-03-19T06:07:47;63.70;;;38.30;;
49015;SDS011;34830;44.064;12.566;2023-03-19T06:10:22;59.10;;;33.45;;
49015;SDS011;34830;44.064;12.566;2023-03-19T06:12:53;56.28;;;36.40;;
49015;SDS011;34830;44.064;12.566;2023-03-19T06:15:19;58.78;;;34.65;;
49015;SDS011;34830;44.064;12.566;2023-03-19T06:17:46;57.65;;;31.30;;
49015;SDS011;34830;44.064;12.566;2023-03-19T06:20:15;59.90;;;35.20;;
49015;SDS011;34830;44.064;12.566;2023-03-19T06:22:42;52.95;;;31.05;;
49015;SDS011;34830;44.064;12.566;2023-03-19T06:25:09;58.00;;;31.08;;
49015;SDS011;34830;44.064;12.566;2023-03-19T06:27:37;54.80;;;30.90;;
49015;SDS011;34830;44.064;12.566;2023-03-19T06:30:17;52.08;;;28.65;;
49015;SDS011;34830;44.064;12.566;2023-03-19T06:32:43;50.63;;;28.55;;
49015;SDS011;34830;44.064;12.566;2023-03-19T06:35:11;42.33;;;26.05;;
49015;SDS011;34830;44.064;12.566;2023-03-19T06:37:38;45.35;;;25.83;;
49015;SDS011;34830;44.064;12.566;2023-03-19T06:40:04;37.10;;;23.63;;
49015;SDS011;34830;44.064;12.566;2023-03-19T06:42:31;43.63;;;26.08;;
49015;SDS011;34830;44.064;12.566;2023-03-19T06:44:57;41.58;;;24.30;;
49015;SDS011;34830;44.064;12.566;2023-03-19T06:47:23;43.42;;;24.33;;
49015;SDS011;34830;44.064;12.566;2023-03-19T06:49:49;38.47;;;23.73;;
49015;SDS011;34830;44.064;12.566;2023-03-19T06:52:16;44.00;;;25.23;;
49015;SDS011;34830;44.064;12.566;2023-03-19T06:54:42;35.33;;;22.60;;
49015;SDS011;34830;44.064;12.566;2023-03-19T06:57:08;36.30;;;22.42;;
49015;SDS011;34830;44.064;12.566;2023-03-19T06:59:34;35.25;;;22.05;;
49015;SDS011;34830;44.064;12.566;2023-03-19T07:02:00;38.00;;;23.40;;
49015;SDS011;34830;44.064;12.566;2023-03-19T07:04:26;35.28;;;21.85;;
49015;SDS011;34830;44.064;12.566;2023-03-19T07:06:52;33.92;;;19.52;;
49015;SDS011;34830;44.064;12.566;2023-03-19T07:09:18;37.65;;;20.42;;
49015;SDS011;34830;44.064;12.566;2023-03-19T07:11:45;30.35;;;19.27;;
49015;SDS011;34830;44.064;12.566;2023-03-19T07:14:11;30.90;;;19.27;;
49015;SDS011;34830;44.064;12.566;2023-03-19T07:16:37;36.08;;;19.90;;
49015;SDS011;34830;44.064;12.566;2023-03-19T07:19:03;29.55;;;18.15;;
49015;SDS011;34830;44.064;12.566;2023-03-19T07:21:29;28.85;;;18.08;;
49015;SDS011;34830;44.064;12.566;2023-03-19T07:23:55;35.25;;;19.73;;
49015;SDS011;34830;44.064;12.566;2023-03-19T07:26:21;32.95;;;18.05;;
49015;SDS011;34830;44.064;12.566;2023-03-19T07:28:47;30.35;;;18.83;;
49015;SDS011;34830;44.064;12.566;2023-03-19T07:31:13;29.55;;;18.50;;
49015;SDS011;34830;44.064;12.566;2023-03-19T07:33:39;31.00;;;17.20;;
49015;SDS011;34830;44.064;12.566;2023-03-19T07:36:05;29.20;;;18.45;;
49015;SDS011;34830;44.064;12.566;2023-03-19T07:38:32;32.17;;;18.33;;
49015;SDS011;34830;44.064;12.566;2023-03-19T07:40:58;35.70;;;19.60;;
49015;SDS011;34830;44.064;12.566;2023-03-19T07:43:24;29.35;;;17.58;;
49015;SDS011;34830;44.064;12.566;2023-03-19T07:45:50;33.47;;;18.55;;
49015;SDS011;34830;44.064;12.566;2023-03-19T07:48:16;31.73;;;18.15;;
49015;SDS011;34830;44.064;12.566;2023-03-19T07:50:43;26.73;;;17.00;;
49015;SDS011;34830;44.064;12.566;2023-03-19T07:53:09;26.65;;;17.92;;
49015;SDS011;34830;44.064;12.566;2023-03-19T07:55:35;27.20;;;17.75;;
49015;SDS011;34830;44.064;12.566;2023-03-19T07:58:02;27.08;;;17.52;;
49015;SDS011;34830;44.064;12.566;2023-03-19T08:00:28;25.70;;;16.45;;
49015;SDS011;34830;44.064;12.566;2023-03-19T08:02:54;24.70;;;15.82;;
49015;SDS011;34830;44.064;12.566;2023-03-19T08:05:20;24.23;;;15.88;;
49015;SDS011;34830;44.064;12.566;2023-03-19T08:07:47;27.73;;;17.30;;
49015;SDS011;34830;44.064;12.566;2023-03-19T08:10:14;26.13;;;17.95;;
49015;SDS011;34830;44.064;12.566;2023-03-19T08:12:40;28.55;;;18.83;;
49015;SDS011;34830;44.064;12.566;2023-03-19T08:15:06;24.60;;;16.50;;
49015;SDS011;34830;44.064;12.566;2023-03-19T08:17:34;23.00;;;16.17;;
49015;SDS011;34830;44.064;12.566;2023-03-19T08:20:03;34.58;;;21.42;;
49015;SDS011;34830;44.064;12.566;2023-03-19T08:22:31;30.20;;;19.52;;
49015;SDS011;34830;44.064;12.566;2023-03-19T08:24:57;40.88;;;26.23;;
49015;SDS011;34830;44.064;12.566;2023-03-19T08:27:23;41.65;;;27.20;;
49015;SDS011;34830;44.064;12.566;2023-03-19T08:29:49;38.15;;;26.80;;
49015;SDS011;34830;44.064;12.566;2023-03-19T08:32:15;41.22;;;24.63;;
49015;SDS011;34830;44.064;12.566;2023-03-19T08:34:41;41.10;;;25.20;;
49015;SDS011;34830;44.064;12.566;2023-03-19T08:37:07;43.00;;;26.05;;
49015;SDS011;34830;44.064;12.566;2023-03-19T08:39:33;37.25;;;24.00;;
49015;SDS011;34830;44.064;12.566;2023-03-19T08:41:59;44.67;;;25.27;;
49015;SDS011;34830;44.064;12.566;2023-03-19T08:44:25;39.65;;;25.50;;
49015;SDS011;34830;44.064;12.566;2023-03-19T08:46:51;45.72;;;26.58;;
49015;SDS011;34830;44.064;12.566;2023-03-19T08:49:17;38.47;;;23.95;;
49015;SDS011;34830;44.064;12.566;2023-03-19T08:51:43;30.63;;;22.08;;
49015;SDS011;34830;44.064;12.566;2023-03-19T08:54:10;31.33;;;21.73;;
49015;SDS011;34830;44.064;12.566;2023-03-19T08:56:38;31.77;;;18.33;;
49015;SDS011;34830;44.064;12.566;2023-03-19T08:59:04;23.55;;;15.43;;
49015;SDS011;34830;44.064;12.566;2023-03-19T09:01:31;27.70;;;15.60;;
49015;SDS011;34830;44.064;12.566;2023-03-19T09:03:57;22.92;;;14.63;;
49015;SDS011;34830;44.064;12.566;2023-03-19T09:06:23;24.75;;;15.65;;
49015;SDS011;34830;44.064;12.566;2023-03-19T09:08:49;22.60;;;14.35;;
49015;SDS011;34830;44.064;12.566;2023-03-19T09:11:15;19.98;;;12.60;;
49015;SDS011;34830;44.064;12.566;2023-03-19T09:13:42;18.80;;;12.63;;
49015;SDS011;34830;44.064;12.566;2023-03-19T09:16:08;25.45;;;14.15;;
49015;SDS011;34830;44.064;12.566;2023-03-19T09:18:35;29.17;;;12.00;;
49015;SDS011;34830;44.064;12.566;2023-03-19T09:21:01;17.38;;;10.05;;
49015;SDS011;34830;44.064;12.566;2023-03-19T09:23:27;17.23;;;11.77;;
49015;SDS011;34830;44.064;12.566;2023-03-19T09:25:53;27.17;;;10.63;;
49015;SDS011;34830;44.064;12.566;2023-03-19T09:28:19;17.67;;;9.35;;
49015;SDS011;34830;44.064;12.566;2023-03-19T09:30:46;15.07;;;8.23;;
49015;SDS011;34830;44.064;12.566;2023-03-19T09:33:15;14.90;;;8.65;;
49015;SDS011;34830;44.064;12.566;2023-03-19T09:35:42;13.65;;;8.90;;
49015;SDS011;34830;44.064;12.566;2023-03-19T09:38:13;14.77;;;8.50;;
49015;SDS011;34830;44.064;12.566;2023-03-19T09:40:51;15.35;;;8.30;;
49015;SDS011;34830;44.064;12.566;2023-03-19T09:43:33;16.80;;;9.85;;
49015;SDS011;34830;44.064;12.566;2023-03-19T09:46:11;19.52;;;9.73;;
49015;SDS011;34830;44.064;12.566;2023-03-19T09:48:46;14.10;;;8.95;;
49015;SDS011;34830;44.064;12.566;2023-03-19T09:51:31;17.15;;;9.70;;
49015;SDS011;34830;44.064;12.566;2023-03-19T09:54:01;18.58;;;9.75;;
49015;SDS011;34830;44.064;12.566;2023-03-19T09:56:29;17.13;;;9.05;;
49015;SDS011;34830;44.064;12.566;2023-03-19T09:58:57;24.55;;;11.30;;
49015;SDS011;34830;44.064;12.566;2023-03-19T10:01:24;28.15;;;15.27;;
49015;SDS011;34830;44.064;12.566;2023-03-19T10:06:25;32.20;;;19.73;;
49015;SDS011;34830;44.064;12.566;2023-03-19T10:11:33;29.17;;;21.33;;
49015;SDS011;34830;44.064;12.566;2023-03-19T10:17:17;34.83;;;22.58;;
49015;SDS011;34830;44.064;12.566;2023-03-19T10:19:52;32.20;;;22.33;;
49015;SDS011;34830;44.064;12.566;2023-03-19T10:22:27;36.85;;;22.17;;
49015;SDS011;34830;44.064;12.566;2023-03-19T10:24:56;35.85;;;21.48;;
49015;SDS011;34830;44.064;12.566;2023-03-19T10:27:25;33.53;;;21.42;;
49015;SDS011;34830;44.064;12.566;2023-03-19T10:29:54;28.98;;;20.33;;
49015;SDS011;34830;44.064;12.566;2023-03-19T10:32:33;28.40;;;18.23;;
49015;SDS011;34830;44.064;12.566;2023-03-19T10:35:06;28.17;;;20.27;;
49015;SDS011;34830;44.064;12.566;2023-03-19T10:37:36;32.28;;;20.15;;
49015;SDS011;34830;44.064;12.566;2023-03-19T10:40:03;30.65;;;18.63;;
49015;SDS011;34830;44.064;12.566;2023-03-19T10:45:17;30.85;;;22.73;;
49015;SDS011;34830;44.064;12.566;2023-03-19T10:47:46;27.92;;;21.45;;
49015;SDS011;34830;44.064;12.566;2023-03-19T10:50:17;32.50;;;22.50;;
49015;SDS011;34830;44.064;12.566;2023-03-19T10:52:45;33.10;;;23.67;;
49015;SDS011;34830;44.064;12.566;2023-03-19T10:55:17;33.97;;;23.75;;
49015;SDS011;34830;44.064;12.566;2023-03-19T10:57:49;31.33;;;20.73;;
49015;SDS011;34830;44.064;12.566;2023-03-19T11:00:17;31.23;;;23.02;;
49015;SDS011;34830;44.064;12.566;2023-03-19T11:02:48;30.42;;;22.00;;
49015;SDS011;34830;44.064;12.566;2023-03-19T11:05:23;31.90;;;22.48;;
49015;SDS011;34830;44.064;12.566;2023-03-19T11:07:57;26.40;;;20.02;;
49015;SDS011;34830;44.064;12.566;2023-03-19T11:10:32;30.63;;;21.23;;
49015;SDS011;34830;44.064;12.566;2023-03-19T11:13:02;30.67;;;19.25;;
49015;SDS011;34830;44.064;12.566;2023-03-19T11:15:36;29.60;;;20.50;;
49015;SDS011;34830;44.064;12.566;2023-03-19T11:18:46;28.52;;;20.35;;
49015;SDS011;34830;44.064;12.566;2023-03-19T11:20:55;30.63;;;20.10;;
49015;SDS011;34830;44.064;12.566;2023-03-19T11:23:30;27.60;;;21.27;;
49015;SDS011;34830;44.064;12.566;2023-03-19T11:26:03;27.15;;;19.70;;
49015;SDS011;34830;44.064;12.566;2023-03-19T11:28:29;33.08;;;22.35;;
49015;SDS011;34830;44.064;12.566;2023-03-19T11:38:56;26.48;;;19.17;;
49015;SDS011;34830;44.064;12.566;2023-03-19T11:47:29;28.17;;;18.27;;
49015;SDS011;34830;44.064;12.566;2023-03-19T11:52:49;34.45;;;18.30;;
49015;SDS011;34830;44.064;12.566;2023-03-19T12:00:50;25.40;;;16.33;;
49015;SDS011;34830;44.064;12.566;2023-03-19T12:07:08;23.40;;;17.13;;
49015;SDS011;34830;44.064;12.566;2023-03-19T12:20:40;19.20;;;10.25;;
49015;SDS011;34830;44.064;12.566;2023-03-19T12:35:06;11.75;;;6.53;;
49015;SDS011;34830;44.064;12.566;2023-03-19T12:37:45;8.88;;;5.10;;
49015;SDS011;34830;44.064;12.566;2023-03-19T12:40:25;9.93;;;4.95;;
49015;SDS011;34830;44.064;12.566;2023-03-19T12:43:53;11.75;;;5.50;;
49015;SDS011;34830;44.064;12.566;2023-03-19T12:46:43;11.73;;;5.22;;
49015;SDS011;34830;44.064;12.566;2023-03-19T12:49:15;7.95;;;5.07;;
49015;SDS011;34830;44.064;12.566;2023-03-19T12:51:47;14.05;;;5.60;;
49015;SDS011;34830;44.064;12.566;2023-03-19T12:54:17;7.25;;;5.00;;
49015;SDS011;34830;44.064;12.566;2023-03-19T12:56:59;13.10;;;5.38;;
49015;SDS011;34830;44.064;12.566;2023-03-19T12:59:57;8.80;;;4.90;;
49015;SDS011;34830;44.064;12.566;2023-03-19T13:02:31;9.68;;;4.70;;
49015;SDS011;34830;44.064;12.566;2023-03-19T13:07:37;9.75;;;5.63;;
49015;SDS011;34830;44.064;12.566;2023-03-19T13:10:25;9.20;;;4.53;;
49015;SDS011;34830;44.064;12.566;2023-03-19T13:12:52;8.88;;;4.60;;
49015;SDS011;34830;44.064;12.566;2023-03-19T13:15:35;9.52;;;5.10;;
49015;SDS011;34830;44.064;12.566;2023-03-19T13:23:48;8.20;;;4.32;;
49015;SDS011;34830;44.064;12.566;2023-03-19T13:26:19;6.43;;;3.97;;
49015;SDS011;34830;44.064;12.566;2023-03-19T13:31:39;7.85;;;4.43;;
49015;SDS011;34830;44.064;12.566;2023-03-19T14:13:40;6.63;;;3.00;;
49015;SDS011;34830;44.064;12.566;2023-03-19T14:16:24;4.47;;;2.80;;
49015;SDS011;34830;44.064;12.566;2023-03-19T14:18:56;8.15;;;3.20;;
49015;SDS011;34830;44.064;12.566;2023-03-19T14:24:28;5.50;;;2.88;;
49015;SDS011;34830;44.064;12.566;2023-03-19T14:27:32;8.82;;;2.95;;
49015;SDS011;34830;44.064;12.566;2023-03-19T14:30:10;6.97;;;2.80;;
49015;SDS011;34830;44.064;12.566;2023-03-19T14:32:48;5.78;;;3.22;;
49015;SDS011;34830;44.064;12.566;2023-03-19T14:35:27;8.50;;;4.32;;
49015;SDS011;34830;44.064;12.566;2023-03-19T14:37:56;5.93;;;2.83;;
49015;SDS011;34830;44.064;12.566;2023-03-19T14:40:37;9.93;;;4.40;;
49015;SDS011;34830;44.064;12.566;2023-03-19T14:51:59;7.05;;;2.83;;
49015;SDS011;34830;44.064;12.566;2023-03-19T14:54:41;8.65;;;2.97;;
49015;SDS011;34830;44.064;12.566;2023-03-19T14:57:20;6.90;;;3.28;;
49015;SDS011;34830;44.064;12.566;2023-03-19T14:59:54;7.88;;;3.00;;
49015;SDS011;34830;44.064;12.566;2023-03-19T15:07:42;5.90;;;2.90;;
49015;SDS011;34830;44.064;12.566;2023-03-19T15:10:28;7.18;;;2.85;;
49015;SDS011;34830;44.064;12.566;2023-03-19T15:13:11;8.70;;;2.95;;
49015;SDS011;34830;44.064;12.566;2023-03-19T15:18:40;7.15;;;2.60;;
49015;SDS011;34830;44.064;12.566;2023-03-19T15:21:17;7.75;;;2.78;;
49015;SDS011;34830;44.064;12.566;2023-03-19T15:23:48;13.75;;;3.40;;
49015;SDS011;34830;44.064;12.566;2023-03-19T15:26:14;6.72;;;2.67;;
49015;SDS011;34830;44.064;12.566;2023-03-19T15:28:50;12.48;;;2.80;;
49015;SDS011;34830;44.064;12.566;2023-03-19T15:34:18;9.98;;;3.70;;
49015;SDS011;34830;44.064;12.566;2023-03-19T15:37:00;6.57;;;2.65;;
49015;SDS011;34830;44.064;12.566;2023-03-19T15:39:45;12.57;;;3.05;;
49015;SDS011;34830;44.064;12.566;2023-03-19T15:42:15;6.30;;;3.28;;
49015;SDS011;34830;44.064;12.566;2023-03-19T15:44:45;5.00;;;2.90;;
49015;SDS011;34830;44.064;12.566;2023-03-19T15:47:32;10.38;;;3.25;;
49015;SDS011;34830;44.064;12.566;2023-03-19T15:50:25;5.65;;;3.20;;
49015;SDS011;34830;44.064;12.566;2023-03-19T15:55:21;7.25;;;3.53;;
49015;SDS011;34830;44.064;12.566;2023-03-19T15:57:54;11.20;;;3.40;;
49015;SDS011;34830;44.064;12.566;2023-03-19T16:00:22;5.50;;;3.20;;
49015;SDS011;34830;44.064;12.566;2023-03-19T16:02:49;9.27;;;3.72;;
49015;SDS011;34830;44.064;12.566;2023-03-19T16:05:42;7.38;;;3.78;;
49015;SDS011;34830;44.064;12.566;2023-03-19T16:08:21;5.18;;;3.20;;
49015;SDS011;34830;44.064;12.566;2023-03-19T16:10:53;12.13;;;4.53;;
49015;SDS011;34830;44.064;12.566;2023-03-19T16:13:26;7.18;;;3.58;;
49015;SDS011;34830;44.064;12.566;2023-03-19T16:18:39;6.35;;;3.40;;
49015;SDS011;34830;44.064;12.566;2023-03-19T16:21:39;6.72;;;3.38;;
49015;SDS011;34830;44.064;12.566;2023-03-19T16:24:31;7.82;;;2.75;;
49015;SDS011;34830;44.064;12.566;2023-03-19T16:27:05;7.78;;;3.10;;
49015;SDS011;34830;44.064;12.566;2023-03-19T16:29:36;5.05;;;3.10;;
49015;SDS011;34830;44.064;12.566;2023-03-19T16:32:36;12.10;;;3.30;;
49015;SDS011;34830;44.064;12.566;2023-03-19T16:35:04;7.57;;;3.33;;
49015;SDS011;34830;44.064;12.566;2023-03-19T16:43:43;9.82;;;4.32;;
49015;SDS011;34830;44.064;12.566;2023-03-19T16:46:11;6.97;;;4.27;;
49015;SDS011;34830;44.064;12.566;2023-03-19T16:48:44;7.28;;;4.00;;
49015;SDS011;34830;44.064;12.566;2023-03-19T16:51:17;6.93;;;4.60;;
49015;SDS011;34830;44.064;12.566;2023-03-19T16:53:44;10.70;;;4.47;;
49015;SDS011;34830;44.064;12.566;2023-03-19T16:56:12;10.55;;;4.03;;
49015;SDS011;34830;44.064;12.566;2023-03-19T16:58:40;8.32;;;3.78;;
49015;SDS011;34830;44.064;12.566;2023-03-19T17:01:18;10.13;;;4.50;;